sensor_id;sensor_type;location;lat;lon;timestamp;temperature;humidity
72604;DHT22;60645;56.968;24.196;2023-03-12T00:02:00;-1.40;86.00
72604;DHT22;60645;56.968;24.196;2023-03-12T00:04:28;-1.60;85.80
72604;DHT22;60645;56.968;24.196;2023-03-12T00:06:55;-1.90;86.50
72604;DHT22;60645;56.968;24.196;2023-03-12T00:09:22;-2.00;86.20
72604;DHT22;60645;56.968;24.196;2023-03-12T00:11:48;-2.20;86.50
72604;DHT22;60645;56.968;24.196;2023-03-12T00:14:15;-2.30;86.60
72604;DHT22;60645;56.968;24.196;2023-03-12T00:16:42;-2.60;86.50
72604;DHT22;60645;56.968;24.196;2023-03-12T00:19:09;-2.60;86.90
72604;DHT22;60645;56.968;24.196;2023-03-12T00:21:38;-2.70;86.90
72604;DHT22;60645;56.968;24.196;2023-03-12T00:24:05;-2.80;87.30
72604;DHT22;60645;56.968;24.196;2023-03-12T00:26:33;-2.90;87.10
72604;DHT22;60645;56.968;24.196;2023-03-12T00:29:00;-3.00;87.30
72604;DHT22;60645;56.968;24.196;2023-03-12T00:31:30;-3.10;87.60
72604;DHT22;60645;56.968;24.196;2023-03-12T00:34:00;-3.20;88.00
72604;DHT22;60645;56.968;24.196;2023-03-12T00:36:28;-3.20;88.30
72604;DHT22;60645;56.968;24.196;2023-03-12T00:38:55;-3.20;88.30
72604;DHT22;60645;56.968;24.196;2023-03-12T00:41:23;-3.00;88.20
72604;DHT22;60645;56.968;24.196;2023-03-12T00:43:50;-3.10;88.20
72604;DHT22;60645;56.968;24.196;2023-03-12T00:46:17;-2.80;87.90
72604;DHT22;60645;56.968;24.196;2023-03-12T00:48:44;-2.80;87.90
72604;DHT22;60645;56.968;24.196;2023-03-12T00:51:11;-2.80;88.10
72604;DHT22;60645;56.968;24.196;2023-03-12T00:53:38;-2.80;88.10
72604;DHT22;60645;56.968;24.196;2023-03-12T00:56:05;-2.80;88.30
72604;DHT22;60645;56.968;24.196;2023-03-12T00:58:32;-2.70;88.20
72604;DHT22;60645;56.968;24.196;2023-03-12T01:00:59;-2.70;88.00
72604;DHT22;60645;56.968;24.196;2023-03-12T01:03:26;-2.80;88.40
72604;DHT22;60645;56.968;24.196;2023-03-12T01:05:53;-2.70;88.60
72604;DHT22;60645;56.968;24.196;2023-03-12T01:08:22;-2.70;88.80
72604;DHT22;60645;56.968;24.196;2023-03-12T01:10:50;-2.60;88.50
72604;DHT22;60645;56.968;24.196;2023-03-12T01:13:17;-2.60;88.80
72604;DHT22;60645;56.968;24.196;2023-03-12T01:15:44;-2.60;88.50
72604;DHT22;60645;56.968;24.196;2023-03-12T01:18:10;-2.60;88.40
72604;DHT22;60645;56.968;24.196;2023-03-12T01:20:38;-2.50;88.10
72604;DHT22;60645;56.968;24.196;2023-03-12T01:23:06;-2.60;88.30
72604;DHT22;60645;56.968;24.196;2023-03-12T01:25:34;-2.60;88.50
72604;DHT22;60645;56.968;24.196;2023-03-12T01:28:01;-2.50;88.60
72604;DHT22;60645;56.968;24.196;2023-03-12T01:30:28;-2.50;88.40
72604;DHT22;60645;56.968;24.196;2023-03-12T01:32:55;-2.40;88.40
72604;DHT22;60645;56.968;24.196;2023-03-12T01:35:22;-2.40;88.60
72604;DHT22;60645;56.968;24.196;2023-03-12T01:37:49;-2.60;88.60
72604;DHT22;60645;56.968;24.196;2023-03-12T01:40:18;-2.40;88.30
72604;DHT22;60645;56.968;24.196;2023-03-12T01:42:56;-2.30;88.30
72604;DHT22;60645;56.968;24.196;2023-03-12T01:48:33;-2.30;88.60
72604;DHT22;60645;56.968;24.196;2023-03-12T01:51:01;-2.30;88.40
72604;DHT22;60645;56.968;24.196;2023-03-12T01:53:28;-2.40;88.80
72604;DHT22;60645;56.968;24.196;2023-03-12T01:55:56;-2.40;89.10
72604;DHT22;60645;56.968;24.196;2023-03-12T01:58:23;-2.40;89.20
72604;DHT22;60645;56.968;24.196;2023-03-12T02:00:50;-2.40;89.30
72604;DHT22;60645;56.968;24.196;2023-03-12T02:03:17;-2.40;89.20
72604;DHT22;60645;56.968;24.196;2023-03-12T02:05:54;-2.60;89.40
72604;DHT22;60645;56.968;24.196;2023-03-12T02:08:23;-2.60;89.80
72604;DHT22;60645;56.968;24.196;2023-03-12T02:10:49;-2.50;89.90
72604;DHT22;60645;56.968;24.196;2023-03-12T02:13:16;-2.50;90.10
72604;DHT22;60645;56.968;24.196;2023-03-12T02:15:43;-2.60;90.20
72604;DHT22;60645;56.968;24.196;2023-03-12T02:18:12;-2.70;90.50
72604;DHT22;60645;56.968;24.196;2023-03-12T02:20:42;-2.90;90.50
72604;DHT22;60645;56.968;24.196;2023-03-12T02:23:16;-2.90;90.70
72604;DHT22;60645;56.968;24.196;2023-03-12T02:25:45;-2.90;91.00
72604;DHT22;60645;56.968;24.196;2023-03-12T02:28:14;-2.90;91.30
72604;DHT22;60645;56.968;24.196;2023-03-12T02:30:42;-3.00;91.70
72604;DHT22;60645;56.968;24.196;2023-03-12T02:33:10;-2.90;91.70
72604;DHT22;60645;56.968;24.196;2023-03-12T02:35:37;-3.10;91.60
72604;DHT22;60645;56.968;24.196;2023-03-12T02:41:04;-3.20;91.80
72604;DHT22;60645;56.968;24.196;2023-03-12T02:43:35;-3.30;92.30
72604;DHT22;60645;56.968;24.196;2023-03-12T02:46:02;-3.30;92.10
72604;DHT22;60645;56.968;24.196;2023-03-12T02:48:30;-3.40;92.10
72604;DHT22;60645;56.968;24.196;2023-03-12T02:50:56;-3.40;92.40
72604;DHT22;60645;56.968;24.196;2023-03-12T02:53:23;-3.40;92.30
72604;DHT22;60645;56.968;24.196;2023-03-12T02:55:50;-3.40;92.30
72604;DHT22;60645;56.968;24.196;2023-03-12T02:58:16;-3.50;92.10
72604;DHT22;60645;56.968;24.196;2023-03-12T03:00:43;-3.50;92.00
72604;DHT22;60645;56.968;24.196;2023-03-12T03:03:10;-3.50;92.10
72604;DHT22;60645;56.968;24.196;2023-03-12T03:05:37;-3.60;92.10
72604;DHT22;60645;56.968;24.196;2023-03-12T03:08:04;-3.50;91.90
72604;DHT22;60645;56.968;24.196;2023-03-12T03:10:31;-3.30;91.50
72604;DHT22;60645;56.968;24.196;2023-03-12T03:12:58;-3.20;91.50
72604;DHT22;60645;56.968;24.196;2023-03-12T03:15:24;-3.10;91.10
72604;DHT22;60645;56.968;24.196;2023-03-12T03:17:51;-3.00;90.70
72604;DHT22;60645;56.968;24.196;2023-03-12T03:20:18;-3.10;90.40
72604;DHT22;60645;56.968;24.196;2023-03-12T03:22:46;-3.20;90.00
72604;DHT22;60645;56.968;24.196;2023-03-12T03:25:13;-3.30;89.80
72604;DHT22;60645;56.968;24.196;2023-03-12T03:27:41;-3.50;90.10
72604;DHT22;60645;56.968;24.196;2023-03-12T03:30:09;-3.50;90.20
72604;DHT22;60645;56.968;24.196;2023-03-12T03:32:37;-3.60;90.30
72604;DHT22;60645;56.968;24.196;2023-03-12T03:35:04;-3.60;90.30
72604;DHT22;60645;56.968;24.196;2023-03-12T03:37:31;-3.50;90.40
72604;DHT22;60645;56.968;24.196;2023-03-12T03:39:58;-3.60;90.50
72604;DHT22;60645;56.968;24.196;2023-03-12T03:42:25;-3.60;90.50
72604;DHT22;60645;56.968;24.196;2023-03-12T03:44:52;-3.70;90.50
72604;DHT22;60645;56.968;24.196;2023-03-12T03:47:19;-3.70;90.40
72604;DHT22;60645;56.968;24.196;2023-03-12T03:49:46;-3.80;90.60
72604;DHT22;60645;56.968;24.196;2023-03-12T03:52:12;-3.80;90.70
72604;DHT22;60645;56.968;24.196;2023-03-12T03:54:39;-4.00;90.70
72604;DHT22;60645;56.968;24.196;2023-03-12T03:57:06;-4.00;90.70
72604;DHT22;60645;56.968;24.196;2023-03-12T03:59:33;-3.90;91.00
72604;DHT22;60645;56.968;24.196;2023-03-12T04:02:00;-4.00;90.90
72604;DHT22;60645;56.968;24.196;2023-03-12T04:04:27;-4.10;91.00
72604;DHT22;60645;56.968;24.196;2023-03-12T04:06:54;-4.10;91.00
72604;DHT22;60645;56.968;24.196;2023-03-12T04:09:21;-3.90;91.10
72604;DHT22;60645;56.968;24.196;2023-03-12T04:11:48;-3.80;90.80
72604;DHT22;60645;56.968;24.196;2023-03-12T04:14:15;-3.70;90.40
72604;DHT22;60645;56.968;24.196;2023-03-12T04:16:41;-3.70;90.40
72604;DHT22;60645;56.968;24.196;2023-03-12T04:19:08;-3.70;90.40
72604;DHT22;60645;56.968;24.196;2023-03-12T04:21:35;-3.60;90.70
72604;DHT22;60645;56.968;24.196;2023-03-12T04:24:06;-3.50;90.40
72604;DHT22;60645;56.968;24.196;2023-03-12T04:26:34;-3.40;90.50
72604;DHT22;60645;56.968;24.196;2023-03-12T04:29:00;-3.40;90.60
72604;DHT22;60645;56.968;24.196;2023-03-12T04:31:27;-3.50;90.40
72604;DHT22;60645;56.968;24.196;2023-03-12T04:33:54;-3.50;90.50
72604;DHT22;60645;56.968;24.196;2023-03-12T04:36:21;-3.50;90.60
72604;DHT22;60645;56.968;24.196;2023-03-12T04:38:48;-3.50;90.60
72604;DHT22;60645;56.968;24.196;2023-03-12T04:41:15;-3.60;90.60
72604;DHT22;60645;56.968;24.196;2023-03-12T04:43:43;-3.60;90.60
72604;DHT22;60645;56.968;24.196;2023-03-12T04:46:10;-3.50;90.40
72604;DHT22;60645;56.968;24.196;2023-03-12T04:48:37;-3.50;90.80
72604;DHT22;60645;56.968;24.196;2023-03-12T04:51:04;-3.30;90.60
72604;DHT22;60645;56.968;24.196;2023-03-12T04:53:31;-3.30;90.50
72604;DHT22;60645;56.968;24.196;2023-03-12T04:55:58;-3.30;90.60
72604;DHT22;60645;56.968;24.196;2023-03-12T04:58:25;-3.10;90.40
72604;DHT22;60645;56.968;24.196;2023-03-12T05:00:52;-3.10;90.30
72604;DHT22;60645;56.968;24.196;2023-03-12T05:03:18;-3.10;89.90
72604;DHT22;60645;56.968;24.196;2023-03-12T05:05:45;-3.00;90.10
72604;DHT22;60645;56.968;24.196;2023-03-12T05:08:12;-3.00;90.10
72604;DHT22;60645;56.968;24.196;2023-03-12T05:10:39;-2.90;89.60
72604;DHT22;60645;56.968;24.196;2023-03-12T05:13:16;-3.00;89.70
72604;DHT22;60645;56.968;24.196;2023-03-12T05:15:43;-3.00;89.70
72604;DHT22;60645;56.968;24.196;2023-03-12T05:18:10;-3.10;89.90
72604;DHT22;60645;56.968;24.196;2023-03-12T05:20:36;-3.00;89.60
72604;DHT22;60645;56.968;24.196;2023-03-12T05:23:03;-3.10;89.70
72604;DHT22;60645;56.968;24.196;2023-03-12T05:25:30;-3.20;89.50
72604;DHT22;60645;56.968;24.196;2023-03-12T05:27:57;-3.20;89.80
72604;DHT22;60645;56.968;24.196;2023-03-12T05:30:24;-2.80;89.60
72604;DHT22;60645;56.968;24.196;2023-03-12T05:32:51;-1.50;86.10
72604;DHT22;60645;56.968;24.196;2023-03-12T05:35:17;-0.30;82.60
72604;DHT22;60645;56.968;24.196;2023-03-12T05:37:44;0.40;79.80
72604;DHT22;60645;56.968;24.196;2023-03-12T05:40:11;1.00;77.30
72604;DHT22;60645;56.968;24.196;2023-03-12T05:42:38;0.80;76.60
72604;DHT22;60645;56.968;24.196;2023-03-12T05:45:05;1.20;75.50
72604;DHT22;60645;56.968;24.196;2023-03-12T05:47:32;1.70;73.50
72604;DHT22;60645;56.968;24.196;2023-03-12T05:49:58;1.60;72.60
72604;DHT22;60645;56.968;24.196;2023-03-12T05:52:25;1.40;72.30
72604;DHT22;60645;56.968;24.196;2023-03-12T05:54:52;1.50;72.20
72604;DHT22;60645;56.968;24.196;2023-03-12T05:57:19;0.80;73.50
72604;DHT22;60645;56.968;24.196;2023-03-12T05:59:46;1.70;72.00
72604;DHT22;60645;56.968;24.196;2023-03-12T06:02:12;1.80;70.50
72604;DHT22;60645;56.968;24.196;2023-03-12T06:04:39;2.70;68.50
72604;DHT22;60645;56.968;24.196;2023-03-12T06:07:06;2.90;67.80
72604;DHT22;60645;56.968;24.196;2023-03-12T06:09:33;3.10;66.20
72604;DHT22;60645;56.968;24.196;2023-03-12T06:12:00;3.10;66.60
72604;DHT22;60645;56.968;24.196;2023-03-12T06:14:27;2.30;67.80
72604;DHT22;60645;56.968;24.196;2023-03-12T06:16:54;1.60;69.30
72604;DHT22;60645;56.968;24.196;2023-03-12T06:19:21;1.00;71.60
72604;DHT22;60645;56.968;24.196;2023-03-12T06:21:47;0.40;73.80
72604;DHT22;60645;56.968;24.196;2023-03-12T06:24:14;0.20;74.30
72604;DHT22;60645;56.968;24.196;2023-03-12T06:26:41;0.20;75.70
72604;DHT22;60645;56.968;24.196;2023-03-12T06:29:08;0.40;74.90
72604;DHT22;60645;56.968;24.196;2023-03-12T06:31:34;1.20;72.50
72604;DHT22;60645;56.968;24.196;2023-03-12T06:34:04;1.60;71.50
72604;DHT22;60645;56.968;24.196;2023-03-12T06:36:31;2.10;68.60
72604;DHT22;60645;56.968;24.196;2023-03-12T06:38:58;1.40;69.40
72604;DHT22;60645;56.968;24.196;2023-03-12T06:41:25;0.70;70.80
72604;DHT22;60645;56.968;24.196;2023-03-12T06:43:51;0.50;72.90
72604;DHT22;60645;56.968;24.196;2023-03-12T06:46:19;1.30;71.20
72604;DHT22;60645;56.968;24.196;2023-03-12T06:48:47;2.70;66.80
72604;DHT22;60645;56.968;24.196;2023-03-12T06:51:14;3.90;63.70
72604;DHT22;60645;56.968;24.196;2023-03-12T06:53:42;5.50;60.10
72604;DHT22;60645;56.968;24.196;2023-03-12T06:56:09;5.80;57.90
72604;DHT22;60645;56.968;24.196;2023-03-12T06:58:36;6.00;57.20
72604;DHT22;60645;56.968;24.196;2023-03-12T07:01:03;6.40;56.10
72604;DHT22;60645;56.968;24.196;2023-03-12T07:03:30;7.00;55.00
72604;DHT22;60645;56.968;24.196;2023-03-12T07:05:57;7.20;53.40
72604;DHT22;60645;56.968;24.196;2023-03-12T07:08:25;7.30;52.40
72604;DHT22;60645;56.968;24.196;2023-03-12T07:10:52;7.60;52.20
72604;DHT22;60645;56.968;24.196;2023-03-12T07:13:19;7.60;52.70
72604;DHT22;60645;56.968;24.196;2023-03-12T07:15:45;8.00;52.00
72604;DHT22;60645;56.968;24.196;2023-03-12T07:18:12;8.50;50.70
72604;DHT22;60645;56.968;24.196;2023-03-12T07:20:40;8.60;50.10
72604;DHT22;60645;56.968;24.196;2023-03-12T07:23:07;8.90;49.70
72604;DHT22;60645;56.968;24.196;2023-03-12T07:25:35;8.90;49.30
72604;DHT22;60645;56.968;24.196;2023-03-12T07:28:03;9.30;48.30
72604;DHT22;60645;56.968;24.196;2023-03-12T07:30:30;9.40;48.20
72604;DHT22;60645;56.968;24.196;2023-03-12T07:32:59;8.30;50.70
72604;DHT22;60645;56.968;24.196;2023-03-12T07:35:27;8.10;51.10
72604;DHT22;60645;56.968;24.196;2023-03-12T07:37:54;9.00;49.30
72604;DHT22;60645;56.968;24.196;2023-03-12T07:40:21;8.50;50.50
72604;DHT22;60645;56.968;24.196;2023-03-12T07:42:49;9.10;49.40
72604;DHT22;60645;56.968;24.196;2023-03-12T07:45:16;9.10;49.30
72604;DHT22;60645;56.968;24.196;2023-03-12T07:47:43;9.00;49.10
72604;DHT22;60645;56.968;24.196;2023-03-12T07:50:10;9.20;48.80
72604;DHT22;60645;56.968;24.196;2023-03-12T07:52:37;9.50;48.40
72604;DHT22;60645;56.968;24.196;2023-03-12T07:55:04;9.50;48.20
72604;DHT22;60645;56.968;24.196;2023-03-12T07:57:32;9.60;47.90
72604;DHT22;60645;56.968;24.196;2023-03-12T07:59:59;9.60;47.90
72604;DHT22;60645;56.968;24.196;2023-03-12T08:02:26;9.50;48.50
72604;DHT22;60645;56.968;24.196;2023-03-12T08:04:53;9.90;48.30
72604;DHT22;60645;56.968;24.196;2023-03-12T08:07:19;9.60;48.10
72604;DHT22;60645;56.968;24.196;2023-03-12T08:09:46;10.10;47.30
72604;DHT22;60645;56.968;24.196;2023-03-12T08:12:15;10.60;46.60
72604;DHT22;60645;56.968;24.196;2023-03-12T08:14:41;11.50;45.50
72604;DHT22;60645;56.968;24.196;2023-03-12T08:17:08;11.90;44.60
72604;DHT22;60645;56.968;24.196;2023-03-12T08:19:36;12.30;44.40
72604;DHT22;60645;56.968;24.196;2023-03-12T08:22:03;12.50;44.10
72604;DHT22;60645;56.968;24.196;2023-03-12T08:24:29;12.60;43.90
72604;DHT22;60645;56.968;24.196;2023-03-12T08:26:56;12.90;43.30
72604;DHT22;60645;56.968;24.196;2023-03-12T08:29:23;13.40;42.50
72604;DHT22;60645;56.968;24.196;2023-03-12T08:31:49;13.20;42.70
72604;DHT22;60645;56.968;24.196;2023-03-12T08:34:29;13.80;41.40
72604;DHT22;60645;56.968;24.196;2023-03-12T08:36:56;13.60;42.30
72604;DHT22;60645;56.968;24.196;2023-03-12T08:39:23;13.60;42.60
72604;DHT22;60645;56.968;24.196;2023-03-12T08:41:50;13.70;41.70
72604;DHT22;60645;56.968;24.196;2023-03-12T08:44:21;14.50;40.40
72604;DHT22;60645;56.968;24.196;2023-03-12T08:46:48;14.70;40.30
72604;DHT22;60645;56.968;24.196;2023-03-12T08:49:15;15.00;39.90
72604;DHT22;60645;56.968;24.196;2023-03-12T08:51:42;15.30;39.30
72604;DHT22;60645;56.968;24.196;2023-03-12T08:54:09;15.20;39.50
72604;DHT22;60645;56.968;24.196;2023-03-12T08:56:35;15.40;39.40
72604;DHT22;60645;56.968;24.196;2023-03-12T08:59:10;15.90;38.10
72604;DHT22;60645;56.968;24.196;2023-03-12T09:01:39;15.70;38.40
72604;DHT22;60645;56.968;24.196;2023-03-12T09:04:09;16.40;37.70
72604;DHT22;60645;56.968;24.196;2023-03-12T09:06:36;16.40;37.20
72604;DHT22;60645;56.968;24.196;2023-03-12T09:09:04;16.00;37.60
72604;DHT22;60645;56.968;24.196;2023-03-12T09:11:31;16.40;37.40
72604;DHT22;60645;56.968;24.196;2023-03-12T09:13:59;16.60;37.20
72604;DHT22;60645;56.968;24.196;2023-03-12T09:16:45;17.00;37.10
72604;DHT22;60645;56.968;24.196;2023-03-12T09:19:12;16.50;37.50
72604;DHT22;60645;56.968;24.196;2023-03-12T09:21:39;16.90;36.90
72604;DHT22;60645;56.968;24.196;2023-03-12T09:24:06;16.80;36.70
72604;DHT22;60645;56.968;24.196;2023-03-12T09:26:33;15.80;37.30
72604;DHT22;60645;56.968;24.196;2023-03-12T09:29:00;14.50;38.90
72604;DHT22;60645;56.968;24.196;2023-03-12T09:31:26;13.80;40.50
72604;DHT22;60645;56.968;24.196;2023-03-12T09:33:53;15.10;38.60
72604;DHT22;60645;56.968;24.196;2023-03-12T09:36:20;14.80;39.10
72604;DHT22;60645;56.968;24.196;2023-03-12T09:38:47;15.10;39.50
72604;DHT22;60645;56.968;24.196;2023-03-12T09:41:21;16.40;37.30
72604;DHT22;60645;56.968;24.196;2023-03-12T09:43:53;17.20;36.60
72604;DHT22;60645;56.968;24.196;2023-03-12T09:46:36;16.60;36.70
72604;DHT22;60645;56.968;24.196;2023-03-12T09:49:05;17.40;36.00
72604;DHT22;60645;56.968;24.196;2023-03-12T09:51:37;18.20;34.60
72604;DHT22;60645;56.968;24.196;2023-03-12T09:54:09;17.70;35.30
72604;DHT22;60645;56.968;24.196;2023-03-12T09:56:38;17.80;35.10
72604;DHT22;60645;56.968;24.196;2023-03-12T09:59:09;17.20;35.50
72604;DHT22;60645;56.968;24.196;2023-03-12T10:01:46;16.60;36.30
72604;DHT22;60645;56.968;24.196;2023-03-12T10:04:17;17.10;35.90
72604;DHT22;60645;56.968;24.196;2023-03-12T10:20:13;8.70;46.60
72604;DHT22;60645;56.968;24.196;2023-03-12T10:28:15;13.30;39.80
72604;DHT22;60645;56.968;24.196;2023-03-12T10:30:45;13.10;39.80
72604;DHT22;60645;56.968;24.196;2023-03-12T10:33:15;10.90;42.70
72604;DHT22;60645;56.968;24.196;2023-03-12T10:35:43;9.60;45.00
72604;DHT22;60645;56.968;24.196;2023-03-12T10:38:17;9.50;45.20
72604;DHT22;60645;56.968;24.196;2023-03-12T10:40:45;8.30;47.20
72604;DHT22;60645;56.968;24.196;2023-03-12T10:43:12;7.50;48.90
72604;DHT22;60645;56.968;24.196;2023-03-12T10:45:45;6.70;50.30
72604;DHT22;60645;56.968;24.196;2023-03-12T10:48:18;6.00;51.50
72604;DHT22;60645;56.968;24.196;2023-03-12T10:50:58;5.70;52.00
72604;DHT22;60645;56.968;24.196;2023-03-12T10:53:27;5.80;52.40
72604;DHT22;60645;56.968;24.196;2023-03-12T10:56:07;5.70;52.40
72604;DHT22;60645;56.968;24.196;2023-03-12T11:01:04;5.60;53.00
72604;DHT22;60645;56.968;24.196;2023-03-12T11:03:32;5.60;53.10
72604;DHT22;60645;56.968;24.196;2023-03-12T11:06:00;5.50;52.90
72604;DHT22;60645;56.968;24.196;2023-03-12T11:08:29;5.40;53.70
72604;DHT22;60645;56.968;24.196;2023-03-12T11:10:56;5.30;55.00
72604;DHT22;60645;56.968;24.196;2023-03-12T11:13:29;5.00;55.90
72604;DHT22;60645;56.968;24.196;2023-03-12T11:15:57;5.40;55.00
72604;DHT22;60645;56.968;24.196;2023-03-12T11:18:29;5.50;54.50
72604;DHT22;60645;56.968;24.196;2023-03-12T11:23:38;5.60;54.60
72604;DHT22;60645;56.968;24.196;2023-03-12T11:26:18;5.60;55.30
72604;DHT22;60645;56.968;24.196;2023-03-12T11:28:46;5.30;53.80
72604;DHT22;60645;56.968;24.196;2023-03-12T11:33:46;5.40;54.60
72604;DHT22;60645;56.968;24.196;2023-03-12T11:36:22;5.70;53.30
72604;DHT22;60645;56.968;24.196;2023-03-12T11:39:01;5.40;54.80
72604;DHT22;60645;56.968;24.196;2023-03-12T11:41:34;5.50;54.00
72604;DHT22;60645;56.968;24.196;2023-03-12T11:52:02;5.20;55.10
72604;DHT22;60645;56.968;24.196;2023-03-12T11:54:35;4.80;56.40
72604;DHT22;60645;56.968;24.196;2023-03-12T11:59:47;5.10;56.50
72604;DHT22;60645;56.968;24.196;2023-03-12T12:10:44;4.90;57.10
72604;DHT22;60645;56.968;24.196;2023-03-12T12:18:16;7.20;53.30
72604;DHT22;60645;56.968;24.196;2023-03-12T12:20:51;9.00;49.20
72604;DHT22;60645;56.968;24.196;2023-03-12T12:23:36;11.30;45.00
72604;DHT22;60645;56.968;24.196;2023-03-12T12:36:56;19.20;34.30
72604;DHT22;60645;56.968;24.196;2023-03-12T12:39:31;19.50;34.00
72604;DHT22;60645;56.968;24.196;2023-03-12T12:42:01;19.50;33.20
72604;DHT22;60645;56.968;24.196;2023-03-12T12:45:02;17.60;34.70
72604;DHT22;60645;56.968;24.196;2023-03-12T12:47:27;16.50;35.70
72604;DHT22;60645;56.968;24.196;2023-03-12T12:49:55;16.80;35.50
72604;DHT22;60645;56.968;24.196;2023-03-12T12:52:23;16.90;35.30
72604;DHT22;60645;56.968;24.196;2023-03-12T12:54:59;18.60;33.60
72604;DHT22;60645;56.968;24.196;2023-03-12T13:00:16;14.40;37.50
72604;DHT22;60645;56.968;24.196;2023-03-12T13:02:45;15.80;36.20
72604;DHT22;60645;56.968;24.196;2023-03-12T13:05:17;16.90;34.90
72604;DHT22;60645;56.968;24.196;2023-03-12T13:07:44;17.50;34.50
72604;DHT22;60645;56.968;24.196;2023-03-12T13:12:56;18.80;32.80
72604;DHT22;60645;56.968;24.196;2023-03-12T13:20:30;19.40;32.30
72604;DHT22;60645;56.968;24.196;2023-03-12T13:25:38;19.70;32.10
72604;DHT22;60645;56.968;24.196;2023-03-12T13:30:56;18.40;32.80
72604;DHT22;60645;56.968;24.196;2023-03-12T13:33:42;17.70;33.60
72604;DHT22;60645;56.968;24.196;2023-03-12T13:41:32;16.90;34.60
72604;DHT22;60645;56.968;24.196;2023-03-12T13:44:00;16.70;34.50
72604;DHT22;60645;56.968;24.196;2023-03-12T13:46:46;16.60;34.60
72604;DHT22;60645;56.968;24.196;2023-03-12T13:49:14;16.10;34.60
72604;DHT22;60645;56.968;24.196;2023-03-12T13:51:44;15.50;35.40
72604;DHT22;60645;56.968;24.196;2023-03-12T13:54:16;15.30;36.00
72604;DHT22;60645;56.968;24.196;2023-03-12T13:56:57;15.70;35.30
72604;DHT22;60645;56.968;24.196;2023-03-12T13:59:25;15.70;35.50
72604;DHT22;60645;56.968;24.196;2023-03-12T14:01:53;13.80;37.60
72604;DHT22;60645;56.968;24.196;2023-03-12T14:04:24;10.00;41.30
72604;DHT22;60645;56.968;24.196;2023-03-12T14:09:45;5.20;50.30
72604;DHT22;60645;56.968;24.196;2023-03-12T14:17:30;3.00;57.30
72604;DHT22;60645;56.968;24.196;2023-03-12T14:20:02;2.70;58.50
72604;DHT22;60645;56.968;24.196;2023-03-12T14:22:31;2.30;59.60
72604;DHT22;60645;56.968;24.196;2023-03-12T14:25:01;2.60;60.60
72604;DHT22;60645;56.968;24.196;2023-03-12T14:27:30;2.30;61.10
72604;DHT22;60645;56.968;24.196;2023-03-12T14:32:28;2.30;61.00
72604;DHT22;60645;56.968;24.196;2023-03-12T14:34:58;2.20;61.40
72604;DHT22;60645;56.968;24.196;2023-03-12T14:37:30;2.30;61.90
72604;DHT22;60645;56.968;24.196;2023-03-12T14:39:59;2.10;61.90
72604;DHT22;60645;56.968;24.196;2023-03-12T14:42:35;2.00;61.60
72604;DHT22;60645;56.968;24.196;2023-03-12T14:47:42;1.80;61.50
72604;DHT22;60645;56.968;24.196;2023-03-12T14:50:16;2.20;62.00
72604;DHT22;60645;56.968;24.196;2023-03-12T14:52:43;2.00;62.00
72604;DHT22;60645;56.968;24.196;2023-03-12T14:55:12;1.90;61.70
72604;DHT22;60645;56.968;24.196;2023-03-12T14:57:40;1.90;62.40
72604;DHT22;60645;56.968;24.196;2023-03-12T15:00:13;1.80;62.50
72604;DHT22;60645;56.968;24.196;2023-03-12T15:02:41;1.70;62.80
72604;DHT22;60645;56.968;24.196;2023-03-12T15:05:13;1.70;63.00
72604;DHT22;60645;56.968;24.196;2023-03-12T15:07:41;1.90;62.70
72604;DHT22;60645;56.968;24.196;2023-03-12T15:10:45;1.60;62.30
72604;DHT22;60645;56.968;24.196;2023-03-12T15:13:01;1.50;63.10
72604;DHT22;60645;56.968;24.196;2023-03-12T15:15:31;1.50;63.10
72604;DHT22;60645;56.968;24.196;2023-03-12T15:18:03;1.70;63.40
72604;DHT22;60645;56.968;24.196;2023-03-12T15:20:30;1.50;63.70
72604;DHT22;60645;56.968;24.196;2023-03-12T15:22:57;1.50;63.30
72604;DHT22;60645;56.968;24.196;2023-03-12T15:25:25;1.60;63.10
72604;DHT22;60645;56.968;24.196;2023-03-12T15:28:26;1.50;63.60
72604;DHT22;60645;56.968;24.196;2023-03-12T15:31:02;1.20;64.40
72604;DHT22;60645;56.968;24.196;2023-03-12T15:33:30;1.20;64.40
72604;DHT22;60645;56.968;24.196;2023-03-12T15:38:27;1.10;65.40
72604;DHT22;60645;56.968;24.196;2023-03-12T15:40:55;1.10;65.20
72604;DHT22;60645;56.968;24.196;2023-03-12T15:43:26;1.10;65.00
72604;DHT22;60645;56.968;24.196;2023-03-12T15:45:59;1.10;65.60
72604;DHT22;60645;56.968;24.196;2023-03-12T15:48:34;0.90;65.60
72604;DHT22;60645;56.968;24.196;2023-03-12T15:51:01;1.10;65.70
72604;DHT22;60645;56.968;24.196;2023-03-12T15:53:30;1.00;66.60
72604;DHT22;60645;56.968;24.196;2023-03-12T15:56:40;0.90;66.20
72604;DHT22;60645;56.968;24.196;2023-03-12T15:58:57;0.80;66.20
72604;DHT22;60645;56.968;24.196;2023-03-12T16:01:24;0.70;67.10
72604;DHT22;60645;56.968;24.196;2023-03-12T16:03:53;0.80;67.00
72604;DHT22;60645;56.968;24.196;2023-03-12T16:06:21;0.70;67.20
72604;DHT22;60645;56.968;24.196;2023-03-12T16:08:54;0.70;67.20
72604;DHT22;60645;56.968;24.196;2023-03-12T16:11:23;0.60;67.20
72604;DHT22;60645;56.968;24.196;2023-03-12T16:13:51;0.50;67.60
72604;DHT22;60645;56.968;24.196;2023-03-12T16:16:18;0.70;67.60
72604;DHT22;60645;56.968;24.196;2023-03-12T16:18:45;0.60;67.60
72604;DHT22;60645;56.968;24.196;2023-03-12T16:21:12;0.60;67.60
72604;DHT22;60645;56.968;24.196;2023-03-12T16:23:39;0.40;68.00
72604;DHT22;60645;56.968;24.196;2023-03-12T16:26:05;0.70;68.10
72604;DHT22;60645;56.968;24.196;2023-03-12T16:28:33;0.50;68.50
72604;DHT22;60645;56.968;24.196;2023-03-12T16:31:00;0.30;68.80
72604;DHT22;60645;56.968;24.196;2023-03-12T16:33:27;0.20;69.20
72604;DHT22;60645;56.968;24.196;2023-03-12T16:35:54;0.30;69.60
72604;DHT22;60645;56.968;24.196;2023-03-12T16:38:21;0.30;69.80
72604;DHT22;60645;56.968;24.196;2023-03-12T16:40:48;0.30;69.80
72604;DHT22;60645;56.968;24.196;2023-03-12T16:43:19;0.40;69.90
72604;DHT22;60645;56.968;24.196;2023-03-12T16:45:46;0.30;70.10
72604;DHT22;60645;56.968;24.196;2023-03-12T16:48:15;0.10;69.90
72604;DHT22;60645;56.968;24.196;2023-03-12T16:50:49;0.20;70.30
72604;DHT22;60645;56.968;24.196;2023-03-12T16:53:16;0.30;70.70
72604;DHT22;60645;56.968;24.196;2023-03-12T16:55:47;0.20;70.70
72604;DHT22;60645;56.968;24.196;2023-03-12T16:58:15;0.40;70.60
72604;DHT22;60645;56.968;24.196;2023-03-12T17:00:43;0.50;70.70
72604;DHT22;60645;56.968;24.196;2023-03-12T17:03:18;0.70;70.70
72604;DHT22;60645;56.968;24.196;2023-03-12T17:05:45;0.70;71.30
72604;DHT22;60645;56.968;24.196;2023-03-12T17:08:12;0.50;71.00
72604;DHT22;60645;56.968;24.196;2023-03-12T17:10:39;0.40;71.50
72604;DHT22;60645;56.968;24.196;2023-03-12T17:13:10;0.50;71.50
72604;DHT22;60645;56.968;24.196;2023-03-12T17:15:38;0.70;72.20
72604;DHT22;60645;56.968;24.196;2023-03-12T17:18:05;0.30;72.40